Time;durP1;ratioP1;P1;durP2;ratioP2;P2;SDS_P1;SDS_P2;PMS_P1;PMS_P2;Temp;Humidity;BMP_temperature;BMP_pressure;BME280_temperature;BME280_humidity;BME280_pressure;Samples;Min_cycle;Max_cycle;Signal;HPM_P1;HPM_P2
2023/03/24 00:01:37;;;;;;;7.32;3.05;;;;;;;;;;4999614;28;20061;-80
2023/03/24 00:04:10;;;;;;;5.47;3.05;;;;;;;;;;5000771;28;20058;-80
2023/03/24 00:06:43;;;;;;;;;;;;;;;;;;5004100;28;20414;-80
2023/03/24 00:09:11;;;;;;;;;;;;;;;;;;5010887;28;19925;-80
2023/03/24 00:11:39;;;;;;;;;;;;;;;;;;5008955;28;19933;-80
2023/03/24 00:14:10;;;;;;;;;;;;;;;;;;5020119;28;19926;-80
2023/03/24 00:16:41;;;;;;;;;;;;;;;;;;5004713;28;19921;-81
2023/03/24 00:19:09;;;;;;;;;;;;;;;;;;5017709;28;20019;-80
2023/03/24 00:21:42;;;;;;;;;;;;;;;;;;5019714;28;20309;-80
2023/03/24 00:24:10;;;;;;;;;;;;;;;;;;5000730;28;19922;-80
2023/03/24 00:26:38;;;;;;;;;;;;;;;;;;5019797;28;20366;-80
2023/03/24 00:29:11;;;;;;;;;;;;;;;;;;5015500;28;19930;-80
2023/03/24 00:31:39;;;;;;;;;;;;;;;;;;5001954;28;20274;-79
2023/03/24 00:34:07;;;;;;;;;;;;;;;;;;5018993;28;20358;-80
2023/03/24 00:36:35;;;;;;;;;;;;;;;;;;5018984;28;19921;-80
2023/03/24 00:39:03;;;;;;;;;;;;;;;;;;5017827;28;19928;-80
2023/03/24 00:41:30;;;;;;;;;;;;;;;;;;4998869;28;19922;-81
2023/03/24 00:43:58;;;;;;;;;;;;;;;;;;5009744;28;20293;-80
2023/03/24 00:46:29;;;;;;;;;;;;;;;;;;5017188;28;19921;-80
2023/03/24 00:49:00;;;;;;;;;;;;;;;;;;5016516;28;19998;-80
2023/03/24 00:51:33;;;;;;;;;;;;;;;;;;5009438;28;19926;-80
2023/03/24 00:54:01;;;;;;;;;;;;;;;;;;5016978;28;19925;-80
2023/03/24 00:56:31;;;;;;;;;;;;;;;;;;5016110;28;19921;-81
2023/03/24 00:59:01;;;;;;;;;;;;;;;;;;5017612;28;19922;-82
2023/03/24 01:01:33;;;;;;;;;;;;;;;;;;5003205;28;19933;-81
2023/03/24 01:04:01;;;;;;;;;;;;;;;;;;5001544;28;19937;-81
2023/03/24 01:06:29;;;;;;;;;;;;;;;;;;5004152;28;19925;-82
2023/03/24 01:08:56;;;;;;;;;;;;;;;;;;5018874;28;19932;-81
2023/03/24 01:11:29;;;;;;;;;;;;;;;;;;5007576;28;19925;-81
2023/03/24 01:14:02;;;;;;;;;;;;;;;;;;5001213;28;19925;-81
2023/03/24 01:16:35;;;;;;;;;;;;;;;;;;5000647;28;19921;-82
2023/03/24 01:19:02;;;;;;;;;;;;;;;;;;5001044;28;19926;-81
2023/03/24 01:21:30;;;;;;;;;;;;;;;;;;5014802;28;19925;-81
2023/03/24 01:23:58;;;;;;;;;;;;;;;;;;5000510;28;20401;-81
2023/03/24 01:26:26;;;;;;;;;;;;;;;;;;5008555;28;19929;-81
2023/03/24 01:28:53;;;;;;;;;;;;;;;;;;5001462;28;19928;-80
2023/03/24 01:31:21;;;;;;;;;;;;;;;;;;5000790;28;20266;-80
2023/03/24 01:33:49;;;;;;;;;;;;;;;;;;5014044;28;19922;-80
2023/03/24 01:36:16;;;;;;;;;;;;;;;;;;5013352;28;20373;-80
2023/03/24 01:38:44;;;;;;;;;;;;;;;;;;5000475;28;20585;-81
2023/03/24 01:41:16;;;;;;;;;;;;;;;;;;5008110;28;19925;-80
2023/03/24 01:43:45;;;;;;;;;;;;;;;;;;4999643;28;19930;-80
2023/03/24 01:46:12;;;;;;;;;;;;;;;;;;5008445;28;19925;-81
2023/03/24 01:48:40;;;;;;;;;;;;;;;;;;5008719;28;19932;-81
2023/03/24 01:51:07;;;;;;;;;;;;;;;;;;5015742;28;19933;-82
2023/03/24 01:53:35;;;;;;;;;;;;;;;;;;5016594;28;19929;-81
2023/03/24 01:56:02;;;;;;;;;;;;;;;;;;5018109;28;19932;-81
2023/03/24 01:58:38;;;;;;;;;;;;;;;;;;5008826;28;19980;-81
2023/03/24 02:01:16;;;;;;;;;;;;;;;;;;5015685;28;20301;-81
2023/03/24 02:03:57;;;;;;;;;;;;;;;;;;5016124;28;19944;-81
2023/03/24 02:06:30;;;;;;;;;;;;;;;;;;5009501;28;19921;-80
2023/03/24 02:08:58;;;;;;;;;;;;;;;;;;5007568;28;20378;-81
2023/03/24 02:11:27;;;;;;;;;;;;;;;;;;5006208;28;19926;-81
2023/03/24 02:13:58;;;;;;;;;;;;;;;;;;5014482;28;19928;-81
2023/03/24 02:16:26;;;;;;;;;;;;;;;;;;5008002;28;19925;-80
2023/03/24 02:18:53;;;;;;;;;;;;;;;;;;5007978;28;19921;-80
2023/03/24 02:21:21;;;;;;;;;;;;;;;;;;5014261;28;19932;-80
2023/03/24 02:23:49;;;;;;;;;;;;;;;;;;5017873;28;19928;-80
2023/03/24 02:26:18;;;;;;;;;;;;;;;;;;5022062;28;19936;-79
2023/03/24 02:28:45;;;;;;;;;;;;;;;;;;5022475;28;20361;-79
2023/03/24 02:31:13;;;;;;;;;;;;;;;;;;5002440;28;19929;-78
2023/03/24 02:33:41;;;;;;;;;;;;;;;;;;5019773;28;20377;-80
2023/03/24 02:36:08;;;;;;;;;;;;;;;;;;5020898;28;19925;-79
2023/03/24 02:38:41;;;;;;;;;;;;;;;;;;5020189;28;19976;-79
2023/03/24 02:41:13;;;;;;;;;;;;;;;;;;5003806;28;19926;-79
2023/03/24 02:43:42;;;;;;;;;;;;;;;;;;5019250;28;20281;-80
2023/03/24 02:46:12;;;;;;;;;;;;;;;;;;5011690;28;19922;-79
2023/03/24 02:48:40;;;;;;;;;;;;;;;;;;5011769;28;19932;-80
2023/03/24 02:51:12;;;;;;;;;;;;;;;;;;5003641;28;20274;-79
2023/03/24 02:53:46;;;;;;;;;;;;;;;;;;5010759;28;19928;-78
2023/03/24 02:56:24;;;;;;;;;;;;;;;;;;5021601;28;19925;-79
2023/03/24 02:58:56;;;;;;;;;;;;;;;;;;5009999;28;19921;-80
2023/03/24 03:01:29;;;;;;;;;;;;;;;;;;5006015;28;19925;-79
2023/03/24 03:04:22;;;;;;;;;;;;;;;;;;5019945;28;19921;-80
2023/03/24 03:06:50;;;;;;;;;;;;;;;;;;5018862;28;19929;-80
2023/03/24 03:09:17;;;;;;;;;;;;;;;;;;5009990;28;19925;-79
2023/03/24 03:11:45;;;;;;;;;;;;;;;;;;5002179;28;19941;-80
2023/03/24 03:14:12;;;;;;;;;;;;;;;;;;5005373;28;19932;-80
2023/03/24 03:16:42;;;;;;;;;;;;;;;;;;5010927;28;19925;-79
2023/03/24 03:19:16;;;;;;;;;;;;;;;;;;5005518;28;19928;-80
2023/03/24 03:21:45;;;;;;;;;;;;;;;;;;5019806;28;20401;-79
2023/03/24 03:24:14;;;;;;;;;;;;;;;;;;5002297;28;19942;-79
2023/03/24 03:26:47;;;;;;;;;;;;;;;;;;5010142;28;19932;-79
2023/03/24 03:29:15;;;;;;;;;;;;;;;;;;5011649;28;19929;-80
2023/03/24 03:31:43;;;;;;;;;;;;;;;;;;5004795;28;19925;-80
2023/03/24 03:34:11;;;;;;;;;;;;;;;;;;5002792;28;19921;-79
2023/03/24 03:36:38;;;;;;;;;;;;;;;;;;5018568;28;19930;-79
2023/03/24 03:39:07;;;;;;;;;;;;;;;;;;5009832;28;19929;-79
2023/03/24 03:41:34;;;;;;;;;;;;;;;;;;5009373;28;19933;-80
2023/03/24 03:44:02;;;;;;;;;;;;;;;;;;5002678;28;20309;-79
2023/03/24 03:46:30;;;;;;;;;;;;;;;;;;5010164;28;19921;-79
2023/03/24 03:48:57;;;;;;;;;;;;;;;;;;5011179;28;19932;-78
2023/03/24 03:51:25;;;;;;;;;;;;;;;;;;5018091;28;19932;-79
2023/03/24 03:53:57;;;;;;;;;;;;;;;;;;5019982;28;19921;-79
2023/03/24 03:56:31;;;;;;;;;;;;;;;;;;5016264;28;19933;-79
2023/03/24 03:59:15;;;;;;;;;;;;;;;;;;5000764;28;19944;-80
2023/03/24 04:01:42;;;;;;;;;;;;;;;;;;5017519;28;19925;-80
2023/03/24 04:04:32;;;;;;;;;;;;;;;;;;5002767;28;19921;-79
2023/03/24 04:07:21;;;;;;;;;;;;;;;;;;5017540;28;19925;-79
2023/03/24 04:09:57;;;;;;;;;;;;;;;;;;5009206;28;19929;-80
2023/03/24 04:12:25;;;;;;;;;;;;;;;;;;5020339;28;19937;-80
2023/03/24 04:15:13;;;;;;;;;;;;;;;;;;5003271;28;19927;-79
2023/03/24 04:18:08;;;;;;;;;;;;;;;;;;5021184;28;19933;-79
2023/03/24 04:20:50;;;;;;;;;;;;;;;;;;4998994;28;19921;-79
2023/03/24 04:23:18;;;;;;;;;;;;;;;;;;5010016;28;19930;-79
2023/03/24 04:25:55;;;;;;;;;;;;;;;;;;5016419;28;19929;-79
2023/03/24 04:28:25;;;;;;;;;;;;;;;;;;5018266;28;19936;-79
2023/03/24 04:31:00;;;;;;;;;;;;;;;;;;5020007;28;19933;-79
2023/03/24 04:33:29;;;;;;;;;;;;;;;;;;5009735;28;19937;-79
2023/03/24 04:35:56;;;;;;;;;;;;;;;;;;5010862;28;19929;-80
2023/03/24 04:38:37;;;;;;;;;;;;;;;;;;5009978;28;20460;-80
2023/03/24 04:41:16;;;;;;;;;;;;;;;;;;5015540;28;20381;-80
2023/03/24 04:43:48;;;;;;;;;;;;;;;;;;5008332;28;19925;-80
2023/03/24 04:46:16;;;;;;;;;;;;;;;;;;5017288;28;19921;-80
2023/03/24 04:49:11;;;;;;;;;;;;;;;;;;5001964;28;20386;-80
2023/03/24 04:51:39;;;;;;;;;;;;;;;;;;5008158;28;20014;-79
2023/03/24 04:54:13;;;;;;;;;;;;;;;;;;5008066;28;19933;-79
2023/03/24 04:56:47;;;;;;;;;;;;;;;;;;5009233;28;19926;-79
2023/03/24 04:59:33;;;;;;;;;;;;;;;;;;5008099;28;19925;-79
2023/03/24 05:02:02;;;;;;;;;;;;;;;;;;5007238;28;19922;-80
2023/03/24 05:05:00;;;;;;;;;;;;;;;;;;5017594;28;19940;-79
2023/03/24 05:07:33;;;;;;;;;;;;;;;;;;5018635;28;19926;-80
2023/03/24 05:10:09;;;;;;;;;;;;;;;;;;5008306;28;19921;-79
2023/03/24 05:12:45;;;;;;;;;;;;;;;;;;4999443;28;20297;-80
2023/03/24 05:15:15;;;;;;;;;;;;;;;;;;5004202;28;19960;-81
2023/03/24 05:17:53;;;;;;;;;;;;;;;;;;5008389;28;19921;-79
2023/03/24 05:20:25;;;;;;;;;;;;;;;;;;5001499;28;20398;-79
2023/03/24 05:22:55;;;;;;;;;;;;;;;;;;5016206;28;19921;-80
2023/03/24 05:25:24;;;;;;;;;;;;;;;;;;5017514;28;19925;-79
2023/03/24 05:27:52;;;;;;;;;;;;;;;;;;5018139;28;19933;-79
2023/03/24 05:30:25;;;;;;;;;;;;;;;;;;4999953;28;20289;-80
2023/03/24 05:33:00;;;;;;;;;;;;;;;;;;5007445;28;19925;-80
2023/03/24 05:35:33;;;;;;;;;;;;;;;;;;5016082;28;20026;-80
2023/03/24 05:38:06;;;;;;;;;;;;;;;;;;5008482;28;19929;-80
2023/03/24 05:40:41;;;;;;;;;;;;;;;;;;5008219;28;19921;-79
2023/03/24 05:43:12;;;;;;;;;;;;;;;;;;5009876;28;20290;-80
2023/03/24 05:45:44;;;;;;;;;;;;;;;;;;5017099;28;20399;-81
2023/03/24 05:48:22;;;;;;;;;;;;;;;;;;5007655;28;19926;-81
2023/03/24 05:51:06;;;;;;;;;;;;;;;;;;5000138;28;19936;-80
2023/03/24 05:53:33;;;;;;;;;;;;;;;;;;5000988;28;20425;-80
2023/03/24 05:56:17;;;;;;;;;;;;;;;;;;5017876;28;19928;-80
2023/03/24 05:59:00;;;;;;;;;;;;;;;;;;5004899;28;19928;-80
2023/03/24 06:01:49;;;;;;;;;;;;;;;;;;5004361;28;19928;-80
2023/03/24 06:04:29;;;;;;;;;;;;;;;;;;5020390;28;19922;-79
2023/03/24 06:07:02;;;;;;;;;;;;;;;;;;5019633;28;19922;-80
2023/03/24 06:09:34;;;;;;;;;;;;;;;;;;5008357;28;19921;-79
2023/03/24 06:12:02;;;;;;;;;;;;;;;;;;5021895;28;19921;-80
2023/03/24 06:14:32;;;;;;;;;;;;;;;;;;5010255;28;19928;-80
2023/03/24 06:17:13;;;;;;;;;;;;;;;;;;5011751;28;19932;-80
2023/03/24 06:19:47;;;;;;;;;;;;;;;;;;5011655;28;19921;-80
2023/03/24 06:22:35;;;;;;;;;;;;;;;;;;5007501;28;19925;-80
2023/03/24 06:25:05;;;;;;;;;;;;;;;;;;5023525;28;19922;-80
2023/03/24 06:27:34;;;;;;;;;;;;;;;;;;5005057;28;19929;-79
2023/03/24 06:30:03;;;;;;;;;;;;;;;;;;5011077;28;19925;-79
2023/03/24 06:32:30;;;;;;;;;;;;;;;;;;5004761;28;19921;-79
2023/03/24 06:34:58;;;;;;;;;;;;;;;;;;5021534;28;19921;-80
2023/03/24 06:37:41;;;;;;;;;;;;;;;;;;5011008;28;19921;-80
2023/03/24 06:40:14;;;;;;;;;;;;;;;;;;5010587;28;19925;-79
2023/03/24 06:42:49;;;;;;;;;;;;;;;;;;5018902;28;19921;-80
2023/03/24 06:45:22;;;;;;;;;;;;;;;;;;5011247;28;19925;-79
2023/03/24 06:47:54;;;;;;;;;;;;;;;;;;5021407;28;19948;-79
2023/03/24 06:50:25;;;;;;;;;;;;;;;;;;5021633;28;19929;-80
2023/03/24 06:52:54;;;;;;;;;;;;;;;;;;5011630;28;19937;-79
2023/03/24 06:55:22;;;;;;;;;;;;;;;;;;5017261;28;19925;-80
2023/03/24 06:57:54;;;;;;;;;;;;;;;;;;5011236;28;19926;-79
2023/03/24 07:00:37;;;;;;;;;;;;;;;;;;5009895;28;19940;-79
2023/03/24 07:03:25;;;;;;;;;;;;;;;;;;5005925;28;19925;-79
2023/03/24 07:06:12;;;;;;;;;;;;;;;;;;5008549;28;19921;-80
2023/03/24 07:08:48;;;;;;;;;;;;;;;;;;5003559;28;19929;-80
2023/03/24 07:11:16;;;;;;;;;;;;;;;;;;5011043;28;19922;-79
2023/03/24 07:13:51;;;;;;;;;;;;;;;;;;5020798;28;19923;-79
2023/03/24 07:16:18;;;;;;;;;;;;;;;;;;5001214;28;19928;-80
2023/03/24 07:19:21;;;;;;;;;;;;;;;;;;5018838;28;20389;-79
2023/03/24 07:22:14;;;;;;;;;;;;;;;;;;5002855;28;19936;-79
2023/03/24 07:25:06;;;;;;;;;;;;;;;;;;5001834;28;19929;-79
2023/03/24 07:27:48;;;;;;;;;;;;;;;;;;5010273;28;19932;-79
2023/03/24 07:30:16;;;;;;;;;;;;;;;;;;5004454;28;19927;-79
2023/03/24 07:32:49;;;;;;;;;;;;;;;;;;5005788;28;19937;-79
2023/03/24 07:35:17;;;;;;;;;;;;;;;;;;5001876;28;19922;-79
2023/03/24 07:37:45;;;;;;;;;;;;;;;;;;5021004;28;19929;-80
2023/03/24 07:40:18;;;;;;;;;;;;;;;;;;5009949;28;19930;-79
2023/03/24 07:42:46;;;;;;;;;;;;;;;;;;5020636;28;19925;-80
2023/03/24 07:45:35;;;;;;;;;;;;;;;;;;5003695;28;19933;-80
2023/03/24 07:48:03;;;;;;;;;;;;;;;;;;5015864;28;19925;-80
2023/03/24 07:50:34;;;;;;;;;;;;;;;;;;5021585;28;19925;-79
2023/03/24 07:53:25;;;;;;;;;;;;;;;;;;5018755;28;20009;-80
2023/03/24 07:55:53;;;;;;;;;;;;;;;;;;5019260;28;19921;-80
2023/03/24 07:58:25;;;;;;;;;;;;;;;;;;5009834;28;19925;-80
2023/03/24 08:01:08;;;;;;;;;;;;;;;;;;5001511;28;20313;-79
2023/03/24 08:03:40;;;;;;;;;;;;;;;;;;5017256;28;19929;-79
2023/03/24 08:06:31;;;;;;;;;;;;;;;;;;4977364;28;19921;-80
2023/03/24 08:08:59;;;;;;;;;;;;;;;;;;5006053;28;19936;-80
2023/03/24 08:11:27;;;;;;;;;;;;;;;;;;5002818;28;19929;-80
2023/03/24 08:13:54;;;;;;;;;;;;;;;;;;5001773;28;19925;-80
2023/03/24 08:16:22;;;;;;;;;;;;;;;;;;5007711;28;20789;-80
2023/03/24 08:18:56;;;;;;;;;;;;;;;;;;5016937;28;19925;-81
2023/03/24 08:21:24;;;;;;;;;;;;;;;;;;5003195;28;19925;-82
2023/03/24 08:23:51;;;;;;;;;;;;;;;;;;5005495;28;19922;-80
2023/03/24 08:26:19;;;;;;;;;;;;;;;;;;5017816;28;19928;-80
2023/03/24 08:28:48;;;;;;;;;;;;;;;;;;5001737;28;19921;-80
2023/03/24 08:31:20;;;;;;;;;;;;;;;;;;5002468;28;19930;-79
2023/03/24 08:33:53;;;;;;;;;;;;;;;;;;5006208;28;19925;-81
2023/03/24 08:36:24;;;;;;;;;;;;;;;;;;5001675;28;19940;-79
2023/03/24 08:38:57;;;;;;;;;;;;;;;;;;5002213;28;19932;-80
2023/03/24 08:41:29;;;;;;;;;;;;;;;;;;4999505;28;19932;-80
2023/03/24 08:43:57;;;;;;;;;;;;;;;;;;4984896;28;19941;-82
2023/03/24 08:46:29;;;;;;;;;;;;;;;;;;4994261;28;20293;-80
2023/03/24 08:48:57;;;;;;;;;;;;;;;;;;4991540;28;20408;-81
2023/03/24 08:51:24;;;;;;;;;;;;;;;;;;5001037;28;19937;-80
2023/03/24 08:53:52;;;;;;;;;;;;;;;;;;4986401;28;19933;-80
2023/03/24 08:56:20;;;;;;;;;;;;;;;;;;4990858;28;19929;-81
2023/03/24 08:58:50;;;;;;;;;;;;;;;;;;4986859;28;19925;-80
2023/03/24 09:01:17;;;;;;;;;;;;;;;;;;4999995;28;20689;-80
2023/03/24 09:03:45;;;;;;;;;;;;;;;;;;4995278;28;19930;-81
2023/03/24 09:06:13;;;;;;;;;;;;;;;;;;4998384;28;20781;-80
2023/03/24 09:08:45;;;;;;;;;;;;;;;;;;4988710;28;19933;-80
2023/03/24 09:11:13;;;;;;;;;;;;;;;;;;4990179;28;19936;-81
2023/03/24 09:13:40;;;;;;;;;;;;;;;;;;4987808;28;20381;-80
2023/03/24 09:16:13;;;;;;;;;;;;;;;;;;4984383;28;19951;-81
2023/03/24 09:18:41;;;;;;;;;;;;;;;;;;4985730;28;19929;-80
2023/03/24 09:21:08;;;;;;;;;;;;;;;;;;5007369;28;20569;-80
2023/03/24 09:23:36;;;;;;;;;;;;;;;;;;4986379;28;19936;-80
2023/03/24 09:26:04;;;;;;;;;;;;;;;;;;4990124;28;19929;-80
2023/03/24 09:28:31;;;;;;;;;;;;;;;;;;4988614;28;19929;-80
2023/03/24 09:30:59;;;;;;;;;;;;;;;;;;4986591;28;20572;-80
2023/03/24 09:33:29;;;;;;;;;;;;;;;;;;4987991;28;19932;-80
2023/03/24 09:35:56;;;;;;;;;;;;;;;;;;4983333;28;19929;-81
2023/03/24 09:38:24;;;;;;;;;;;;;;;;;;4980924;28;19929;-81
2023/03/24 09:40:51;;;;;;;;;;;;;;;;;;4995862;28;19929;-80
2023/03/24 09:43:19;;;;;;;;;;;;;;;;;;4988135;28;19929;-81
2023/03/24 09:45:51;;;;;;;;;;;;;;;;;;4969440;28;19929;-80
2023/03/24 09:48:19;;;;;;;;;;;;;;;;;;4983717;28;19936;-80
2023/03/24 09:50:47;;;;;;;;;;;;;;;;;;4980344;28;20326;-80
2023/03/24 09:53:14;;;;;;;;;;;;;;;;;;4999135;28;19929;-79
2023/03/24 09:55:42;;;;;;;;;;;;;;;;;;4987949;28;21953;-81
2023/03/24 09:58:09;;;;;;;;;;;;;;;;;;4998250;28;20670;-80
2023/03/24 10:00:37;;;;;;;;;;;;;;;;;;4983487;28;19929;-80
2023/03/24 10:03:05;;;;;;;;;;;;;;;;;;4989334;28;19940;-80
2023/03/24 10:05:32;;;;;;;;;;;;;;;;;;4979465;28;20432;-81
2023/03/24 10:08:05;;;;;;;;;;;;;;;;;;4982408;28;19930;-81
2023/03/24 10:10:33;;;;;;;;;;;;;;;;;;4985468;28;19929;-81
2023/03/24 10:13:00;;;;;;;;;;;;;;;;;;4985327;28;19930;-82
2023/03/24 10:15:28;;;;;;;;;;;;;;;;;;4984507;28;19921;-80
2023/03/24 10:17:55;;;;;;;;;;;;;;;;;;4991131;28;19930;-79
2023/03/24 10:20:23;;;;;;;;;;;;;;;;;;5000718;28;19936;-80
2023/03/24 10:22:51;;;;;;;;;;;;;;;;;;4988259;28;19926;-81
2023/03/24 10:25:23;;;;;;;;;;;;;;;;;;4988235;28;19929;-80
2023/03/24 10:27:56;;;;;;;;;;;;;;;;;;4985288;28;19941;-79
2023/03/24 10:30:23;;;;;;;;;;;;;;;;;;5004393;28;19929;-80
2023/03/24 10:32:56;;;;;;;;;;;;;;;;;;4985721;28;19929;-81
2023/03/24 10:35:23;;;;;;;;;;;;;;;;;;4987902;28;20019;-81
2023/03/24 10:37:51;;;;;;;;;;;;;;;;;;4998239;28;19929;-81
2023/03/24 10:40:19;;;;;;;;;;;;;;;;;;4997767;28;19929;-81
2023/03/24 10:42:47;;;;;;;;;;;;;;;;;;4997994;28;20925;-81
2023/03/24 10:45:14;;;;;;;;;;;;;;;;;;4965035;28;19929;-79
2023/03/24 10:47:47;;;;;;;;;;;;;;;;;;4986550;28;19926;-80
2023/03/24 10:50:14;;;;;;;;;;;;;;;;;;5000652;28;19929;-81
2023/03/24 10:52:49;;;;;;;;;;;;;;;;;;4990918;28;19929;-81
2023/03/24 10:55:17;;;;;;;;;;;;;;;;;;4991091;28;20681;-80
2023/03/24 10:57:50;;;;;;;;;;;;;;;;;;4986811;28;19936;-80
2023/03/24 11:00:18;;;;;;;;;;;;;;;;;;4985499;28;19929;-80
2023/03/24 11:02:45;;;;;;;;;;;;;;;;;;4986980;28;20795;-80
2023/03/24 11:05:13;;;;;;;;;;;;;;;;;;4994123;28;19937;-79
2023/03/24 11:07:46;;;;;;;;;;;;;;;;;;4993673;28;19921;-81
2023/03/24 11:10:15;;;;;;;;;;;;;;;;;;4988313;28;20413;-80
2023/03/24 11:12:43;;;;;;;;;;;;;;;;;;4989064;28;19933;-80
2023/03/24 11:15:10;;;;;;;;;;;;;;;;;;5002016;28;19936;-80
2023/03/24 11:17:43;;;;;;;;;;;;;;;;;;4992793;28;19933;-79
2023/03/24 11:20:10;;;;;;;;;;;;;;;;;;5004554;28;19952;-80
2023/03/24 11:22:44;;;;;;;;;;;;;;;;;;4993081;28;21151;-80
2023/03/24 11:25:17;;;;;;;;;;;;;;;;;;4988664;28;19937;-80
2023/03/24 11:27:44;;;;;;;;;;;;;;;;;;4989114;28;20050;-80
2023/03/24 11:30:12;;;;;;;;;;;;;;;;;;4991185;28;20301;-79
2023/03/24 11:32:39;;;;;;;;;;;;;;;;;;4986493;28;20025;-80
2023/03/24 11:35:16;;;;;;;;;;;;;;;;;;5005523;28;19936;-80
2023/03/24 11:37:48;;;;;;;;;;;;;;;;;;4987188;28;19929;-79
2023/03/24 11:40:21;;;;;;;;;;;;;;;;;;4983020;28;20729;-80
2023/03/24 11:42:49;;;;;;;;;;;;;;;;;;4984718;28;19932;-81
2023/03/24 11:45:17;;;;;;;;;;;;;;;;;;4973719;28;19925;-80
2023/03/24 11:47:44;;;;;;;;;;;;;;;;;;4989243;28;19929;-80
2023/03/24 11:50:12;;;;;;;;;;;;;;;;;;4983070;28;19948;-79
2023/03/24 11:52:40;;;;;;;;;;;;;;;;;;4995323;28;19929;-81
2023/03/24 11:55:07;;;;;;;;;;;;;;;;;;4981736;28;20744;-80
2023/03/24 11:57:36;;;;;;;;;;;;;;;;;;4984196;28;19930;-80
2023/03/24 12:00:04;;;;;;;;;;;;;;;;;;4991063;28;19940;-80
2023/03/24 12:02:39;;;;;;;;;;;;;;;;;;4996720;28;20385;-80
2023/03/24 12:05:07;;;;;;;;;;;;;;;;;;4983245;28;19929;-81
2023/03/24 12:07:34;;;;;;;;;;;;;;;;;;4992638;28;19929;-80
2023/03/24 12:10:02;;;;;;;;;;;;;;;;;;4990239;28;19936;-79
2023/03/24 12:12:29;;;;;;;;;;;;;;;;;;4988387;28;19929;-79
2023/03/24 12:14:57;;;;;;;;;;;;;;;;;;4990010;28;20374;-80
2023/03/24 12:17:24;;;;;;;;;;;;;;;;;;4982551;28;19930;-81
2023/03/24 12:19:52;;;;;;;;;;;;;;;;;;5000939;28;19929;-79
2023/03/24 12:22:20;;;;;;;;;;;;;;;;;;4986349;28;19956;-81
2023/03/24 12:24:47;;;;;;;;;;;;;;;;;;5005650;28;20332;-80
2023/03/24 12:27:20;;;;;;;;;;;;;;;;;;4993724;28;19930;-79
2023/03/24 12:29:48;;;;;;;;;;;;;;;;;;4987259;28;19930;-80
2023/03/24 12:32:21;;;;;;;;;;;;;;;;;;4985176;28;19936;-79
2023/03/24 12:34:49;;;;;;;;;;;;;;;;;;4983603;28;19929;-80
2023/03/24 12:37:16;;;;;;;;;;;;;;;;;;4983130;28;19933;-80
2023/03/24 12:39:44;;;;;;;;;;;;;;;;;;5004713;28;19929;-79
2023/03/24 12:42:17;;;;;;;;;;;;;;;;;;4986895;28;19930;-79
2023/03/24 12:44:45;;;;;;;;;;;;;;;;;;4984888;28;19929;-79
2023/03/24 12:47:13;;;;;;;;;;;;;;;;;;4997935;28;19929;-78
2023/03/24 12:49:40;;;;;;;;;;;;;;;;;;4996685;28;20009;-79
2023/03/24 12:52:08;;;;;;;;;;;;;;;;;;4976100;28;19949;-80
2023/03/24 12:54:41;;;;;;;;;;;;;;;;;;4979397;28;20298;-79
2023/03/24 12:57:08;;;;;;;;;;;;;;;;;;4980534;28;19925;-80
2023/03/24 12:59:36;;;;;;;;;;;;;;;;;;5001097;28;19929;-79
2023/03/24 13:02:03;;;;;;;;;;;;;;;;;;4986338;28;20572;-79
2023/03/24 13:04:36;;;;;;;;;;;;;;;;;;4975216;28;19940;-79
2023/03/24 13:07:04;;;;;;;;;;;;;;;;;;4996109;28;19934;-80
2023/03/24 13:09:38;;;;;;;;;;;;;;;;;;4976153;28;20548;-79
2023/03/24 13:12:06;;;;;;;;;;;;;;;;;;4984365;28;19945;-80
2023/03/24 13:14:39;;;;;;;;;;;;;;;;;;4993717;28;20213;-80
2023/03/24 13:17:06;;;;;;;;;;;;;;;;;;5001428;28;19937;-80
2023/03/24 13:19:34;;;;;;;;;;;;;;;;;;4974900;28;19929;-79
2023/03/24 13:22:01;;;;;;;;;;;;;;;;;;4974316;28;19945;-79
2023/03/24 13:24:34;;;;;;;;;;;;;;;;;;4976236;28;19929;-80
2023/03/24 13:27:01;;;;;;;;;;;;;;;;;;4974579;28;20618;-80
2023/03/24 13:29:29;;;;;;;;;;;;;;;;;;4976839;28;19929;-79
2023/03/24 13:32:03;;;;;;;;;;;;;;;;;;4980492;28;19930;-79
2023/03/24 13:34:31;;;;;;;;;;;;;;;;;;4971567;28;19929;-79
2023/03/24 13:36:59;;;;;;;;;;;;;;;;;;4982078;28;19956;-79
2023/03/24 13:39:26;;;;;;;;;;;;;;;;;;4984905;28;20281;-79
2023/03/24 13:41:54;;;;;;;;;;;;;;;;;;4979322;28;19930;-80
2023/03/24 13:44:21;;;;;;;;;;;;;;;;;;4958188;28;20338;-78
2023/03/24 13:46:54;;;;;;;;;;;;;;;;;;5002476;28;19930;-80
2023/03/24 13:49:21;;;;;;;;;;;;;;;;;;5003053;28;19929;-80
2023/03/24 13:51:49;;;;;;;;;;;;;;;;;;5005116;28;20857;-79
2023/03/24 13:54:17;;;;;;;;;;;;;;;;;;4973791;28;19936;-79
2023/03/24 13:56:44;;;;;;;;;;;;;;;;;;4973028;28;20461;-79
2023/03/24 13:59:12;;;;;;;;;;;;;;;;;;4974994;28;20275;-80
2023/03/24 14:01:39;;;;;;;;;;;;;;;;;;5006022;28;19951;-79
2023/03/24 14:04:07;;;;;;;;;;;;;;;;;;4991162;28;19929;-79
2023/03/24 14:06:34;;;;;;;;;;;;;;;;;;4988486;28;19937;-79
2023/03/24 14:09:02;;;;;;;;;;;;;;;;;;4977256;28;19929;-80
2023/03/24 14:11:29;;;;;;;;;;;;;;;;;;4997461;28;19929;-79
2023/03/24 14:13:57;;;;;;;;;;;;;;;;;;4977848;28;19929;-79
2023/03/24 14:16:24;;;;;;;;;;;;;;;;;;4978692;28;19934;-81
2023/03/24 14:18:52;;;;;;;;;;;;;;;;;;4973980;28;20126;-80
2023/03/24 14:21:19;;;;;;;;;;;;;;;;;;5002047;28;19944;-80
2023/03/24 14:23:48;;;;;;;;;;;;;;;;;;4985444;28;20351;-81
2023/03/24 14:26:15;;;;;;;;;;;;;;;;;;4983318;28;19940;-78
2023/03/24 14:28:49;;;;;;;;;;;;;;;;;;4985934;28;19937;-79
2023/03/24 14:31:17;;;;;;;;;;;;;;;;;;5006555;28;19930;-78
2023/03/24 14:33:44;;;;;;;;;;;;;;;;;;4980159;28;19929;-79
2023/03/24 14:36:17;;;;;;;;;;;;;;;;;;4986157;28;19940;-79
2023/03/24 14:38:45;;;;;;;;;;;;;;;;;;4985305;28;19929;-79
2023/03/24 14:41:22;;;;;;;;;;;;;;;;;;4981544;28;19936;-79
2023/03/24 14:43:55;;;;;;;;;;;;;;;;;;4953106;28;19930;-79
2023/03/24 14:46:22;;;;;;;;;;;;;;;;;;5005481;28;19930;-79
2023/03/24 14:48:50;;;;;;;;;;;;;;;;;;4985127;28;19936;-78
2023/03/24 14:51:19;;;;;;;;;;;;;;;;;;4977127;28;19936;-79
2023/03/24 14:53:48;;;;;;;;;;;;;;;;;;4986360;28;19938;-78
2023/03/24 14:56:15;;;;;;;;;;;;;;;;;;4999983;28;20392;-80
2023/03/24 14:58:43;;;;;;;;;;;;;;;;;;4985236;28;20297;-80
2023/03/24 15:01:16;;;;;;;;;;;;;;;;;;4975627;28;19926;-80
2023/03/24 15:03:48;;;;;;;;;;;;;;;;;;5000576;28;19929;-79
2023/03/24 15:06:16;;;;;;;;;;;;;;;;;;4987400;28;19933;-80
2023/03/24 15:08:43;;;;;;;;;;;;;;;;;;4979700;28;19925;-79
2023/03/24 15:11:16;;;;;;;;;;;;;;;;;;4984635;28;19930;-79
2023/03/24 15:13:48;;;;;;;;;;;;;;;;;;4974809;28;19975;-80
2023/03/24 15:16:21;;;;;;;;;;;;;;;;;;5002032;28;19929;-80
2023/03/24 15:18:48;;;;;;;;;;;;;;;;;;5002234;28;20290;-80
2023/03/24 15:21:16;;;;;;;;;;;;;;;;;;4982834;28;19930;-80
2023/03/24 15:23:44;;;;;;;;;;;;;;;;;;4986065;28;19937;-82
2023/03/24 15:26:11;;;;;;;;;;;;;;;;;;4979678;28;20486;-80
2023/03/24 15:28:44;;;;;;;;;;;;;;;;;;4986526;28;19925;-79
2023/03/24 15:31:11;;;;;;;;;;;;;;;;;;4975342;28;21150;-79
2023/03/24 15:33:39;;;;;;;;;;;;;;;;;;4999985;28;19929;-79
2023/03/24 15:36:12;;;;;;;;;;;;;;;;;;4991759;28;20576;-80
2023/03/24 15:38:39;;;;;;;;;;;;;;;;;;4978632;28;19925;-80
2023/03/24 15:41:12;;;;;;;;;;;;;;;;;;4980667;28;19941;-79
2023/03/24 15:43:44;;;;;;;;;;;;;;;;;;4977389;28;19937;-79
2023/03/24 15:46:17;;;;;;;;;;;;;;;;;;4971223;28;19936;-79
2023/03/24 15:48:44;;;;;;;;;;;;;;;;;;4974880;28;19930;-79
2023/03/24 15:51:12;;;;;;;;;;;;;;;;;;4981694;28;20546;-79
2023/03/24 15:53:40;;;;;;;;;;;;;;;;;;4979878;28;20042;-80
2023/03/24 15:56:13;;;;;;;;;;;;;;;;;;4982407;28;19941;-81
2023/03/24 15:58:40;;;;;;;;;;;;;;;;;;5003484;28;19936;-79
2023/03/24 16:01:08;;;;;;;;;;;;;;;;;;5002980;28;19930;-79
2023/03/24 16:03:41;;;;;;;;;;;;;;;;;;4980718;28;19930;-78
2023/03/24 16:06:08;;;;;;;;;;;;;;;;;;4978923;28;19932;-80
2023/03/24 16:08:37;;;;;;;;;;;;;;;;;;4986315;28;19940;-80
2023/03/24 16:11:06;;;;;;;;;;;;;;;;;;4983091;28;20043;-78
2023/03/24 16:13:34;;;;;;;;;;;;;;;;;;4973896;28;20279;-80
2023/03/24 16:16:02;;;;;;;;;;;;;;;;;;4976029;28;19930;-80
2023/03/24 16:18:31;;;;;;;;;;;;;;;;;;4986388;28;19949;-80
2023/03/24 16:20:59;;;;;;;;;;;;;;;;;;4978649;28;19929;-79
2023/03/24 16:23:31;;;;;;;;;;;;;;;;;;4982493;28;19936;-80
2023/03/24 16:26:04;;;;;;;;;;;;;;;;;;4979126;28;19929;-79
2023/03/24 16:28:31;;;;;;;;;;;;;;;;;;4980278;28;19937;-80
2023/03/24 16:30:59;;;;;;;;;;;;;;;;;;4984307;28;20602;-80
2023/03/24 16:33:29;;;;;;;;;;;;;;;;;;4994619;28;19930;-80
2023/03/24 16:35:56;;;;;;;;;;;;;;;;;;4992959;28;20958;-79
2023/03/24 16:38:24;;;;;;;;;;;;;;;;;;4968671;28;19929;-81
2023/03/24 16:40:56;;;;;;;;;;;;;;;;;;4968028;28;19934;-80
2023/03/24 16:43:26;;;;;;;;;;;;;;;;;;4976995;28;19936;-79
2023/03/24 16:45:58;;;;;;;;;;;;;;;;;;4969266;28;19936;-80
2023/03/24 16:48:26;;;;;;;;;;;;;;;;;;4967868;28;19933;-79
2023/03/24 16:50:54;;;;;;;;;;;;;;;;;;4974958;28;19950;-79
2023/03/24 16:53:29;;;;;;;;;;;;;;;;;;4978282;28;19937;-80
2023/03/24 16:55:56;;;;;;;;;;;;;;;;;;4968414;28;19936;-80
2023/03/24 16:58:24;;;;;;;;;;;;;;;;;;4973757;28;20367;-78
2023/03/24 17:00:52;;;;;;;;;;;;;;;;;;4979039;28;19969;-80
2023/03/24 17:03:23;;;;;;;;;;;;;;;;;;4974357;28;19929;-79
2023/03/24 17:05:50;;;;;;;;;;;;;;;;;;4995573;28;19936;-79
2023/03/24 17:08:18;;;;;;;;;;;;;;;;;;4993631;28;19936;-79